createdAt,value
2019-01-05T00:14:26.660Z,4.5
2019-01-05T00:29:28.850Z,4.7
2019-01-05T00:44:23.735Z,4.4
2019-01-05T00:59:02.066Z,4.6
2019-01-05T01:28:45.129Z,4.9
2019-01-05T01:44:32.005Z,4.7
2019-01-05T01:58:47.031Z,4.4
2019-01-05T02:14:29.941Z,4
2019-01-05T02:29:09.017Z,4.1
2019-01-05T02:59:32.646Z,3.8
2019-01-05T03:14:05.737Z,4.1
2019-01-05T03:29:26.821Z,3.8
2019-01-05T03:43:47.339Z,3.7
2019-01-05T03:58:52.752Z,3.8
2019-01-05T04:14:37.702Z,3.4
2019-01-05T04:29:20.874Z,3.6
2019-01-05T04:58:58.377Z,3.5
2019-01-05T05:28:59.141Z,3.4
2019-01-05T05:43:53.309Z,3.3
2019-01-05T05:59:10.378Z,3.2
2019-01-05T06:14:50.727Z,3
2019-01-05T06:44:20.356Z,2.9
2019-01-05T06:58:55.228Z,2.7
2019-01-05T07:14:01.554Z,2.6
2019-01-05T07:28:50.187Z,2.7
2019-01-05T07:44:41.114Z,2.5
2019-01-05T07:59:20.317Z,2.4
2019-01-05T08:14:05.500Z,2.3
2019-01-05T08:29:35.253Z,2.1
2019-01-05T08:44:05.026Z,2.4
2019-01-05T08:59:28.264Z,2
2019-01-05T09:14:46.807Z,2.2
2019-01-05T09:29:22.415Z,2
2019-01-05T09:44:43.489Z,1.5
2019-01-05T09:59:53.213Z,1.5
2019-01-05T10:14:39.842Z,1.5
2019-01-05T10:29:35.765Z,1.7
2019-01-05T10:44:21.737Z,1.9
2019-01-05T10:59:18.507Z,2.1
2019-01-05T11:14:11.603Z,1.6
2019-01-05T11:29:20.683Z,1.9
2019-01-05T11:44:07.547Z,2
2019-01-05T11:59:20.557Z,2
2019-01-05T12:14:30.351Z,1.9
2019-01-05T12:29:39.159Z,1.6
2019-01-05T12:44:15.227Z,1.8
2019-01-05T12:59:01.728Z,1.7
2019-01-05T13:14:27.991Z,1.6
2019-01-05T13:29:17.899Z,1.5
2019-01-05T13:44:47.786Z,1.4
2019-01-05T13:59:45.059Z,2.1
2019-01-05T14:14:48.504Z,1.9
2019-01-05T14:29:26.624Z,1.6
2019-01-05T14:44:55.654Z,1.8
2019-01-05T14:59:45.462Z,1.7
2019-01-05T15:14:29.081Z,1.6
2019-01-05T15:29:32.341Z,1.8
2019-01-05T15:44:13.463Z,1.8
2019-01-05T15:59:20.293Z,1.7
2019-01-05T16:14:43.813Z,1.8
2019-01-05T16:29:28.030Z,1.6
2019-01-05T16:44:17.443Z,1.7
2019-01-05T17:14:16.425Z,1.9
2019-01-05T17:29:56.755Z,1.8
2019-01-05T17:44:41.800Z,2.2
2019-01-05T17:59:40.728Z,2.1
2019-01-05T18:14:28.552Z,3.1
2019-01-05T18:29:11.668Z,3
2019-01-05T18:44:09.211Z,5.1
2019-01-05T19:00:00.586Z,5.2
2019-01-05T19:15:00.250Z,5.7
2019-01-05T19:30:00.739Z,5.6
2019-01-05T19:44:53.057Z,4.8
2019-01-05T19:59:48.389Z,4.7
2019-01-05T20:14:53.754Z,4.7
2019-01-05T20:29:25.276Z,4.5
2019-01-05T20:44:30.187Z,4.4
2019-01-05T20:59:47.743Z,4.6
2019-01-05T21:14:51.784Z,4.2
2019-01-05T21:29:47.270Z,3.9
2019-01-05T21:45:11.599Z,4
2019-01-05T22:00:13.217Z,4.1
2019-01-05T22:15:02.897Z,3.9
2019-01-05T22:29:31.019Z,3.9
2019-01-05T22:44:28.366Z,3.3
2019-01-05T22:59:38.053Z,3.1
2019-01-05T23:14:47.119Z,3.8
2019-01-05T23:29:40.486Z,2.9
2019-01-05T23:44:42.201Z,3
2019-01-05T23:59:53.590Z,3.1
